sensor_id;sensor_type;location;lat;lon;timestamp;P1;durP1;ratioP1;P2;durP2;ratioP2
55031;SDS011;40928;51.076;7.950;2023-04-25T00:01:22;16.95;;;4.93;;
55031;SDS011;40928;51.076;7.950;2023-04-25T00:03:48;12.40;;;4.00;;
55031;SDS011;40928;51.076;7.950;2023-04-25T00:06:13;15.45;;;5.95;;
55031;SDS011;40928;51.076;7.950;2023-04-25T00:08:39;11.98;;;4.70;;
55031;SDS011;40928;51.076;7.950;2023-04-25T00:11:05;11.90;;;5.57;;
55031;SDS011;40928;51.076;7.950;2023-04-25T00:13:31;10.20;;;4.47;;
55031;SDS011;40928;51.076;7.950;2023-04-25T00:15:56;14.60;;;5.40;;
55031;SDS011;40928;51.076;7.950;2023-04-25T00:18:23;17.77;;;4.45;;
55031;SDS011;40928;51.076;7.950;2023-04-25T00:20:48;12.38;;;4.80;;
55031;SDS011;40928;51.076;7.950;2023-04-25T00:23:17;6.45;;;4.03;;
55031;SDS011;40928;51.076;7.950;2023-04-25T00:25:46;12.23;;;3.80;;
55031;SDS011;40928;51.076;7.950;2023-04-25T00:28:15;13.38;;;5.18;;
55031;SDS011;40928;51.076;7.950;2023-04-25T00:30:41;17.13;;;4.95;;
55031;SDS011;40928;51.076;7.950;2023-04-25T00:33:07;9.13;;;4.35;;
55031;SDS011;40928;51.076;7.950;2023-04-25T00:35:33;11.95;;;4.57;;
55031;SDS011;40928;51.076;7.950;2023-04-25T00:37:59;11.65;;;4.68;;
55031;SDS011;40928;51.076;7.950;2023-04-25T00:40:24;9.10;;;4.65;;
55031;SDS011;40928;51.076;7.950;2023-04-25T00:42:51;11.05;;;4.38;;
55031;SDS011;40928;51.076;7.950;2023-04-25T00:45:18;12.45;;;3.78;;
55031;SDS011;40928;51.076;7.950;2023-04-25T00:47:45;7.55;;;3.92;;
55031;SDS011;40928;51.076;7.950;2023-04-25T00:50:12;8.73;;;4.28;;
55031;SDS011;40928;51.076;7.950;2023-04-25T00:52:39;16.02;;;4.95;;
55031;SDS011;40928;51.076;7.950;2023-04-25T00:55:07;13.15;;;6.15;;
55031;SDS011;40928;51.076;7.950;2023-04-25T00:57:33;13.35;;;5.28;;
55031;SDS011;40928;51.076;7.950;2023-04-25T00:59:59;14.10;;;4.97;;
55031;SDS011;40928;51.076;7.950;2023-04-25T01:02:25;21.08;;;5.47;;
55031;SDS011;40928;51.076;7.950;2023-04-25T01:04:52;11.80;;;4.85;;
55031;SDS011;40928;51.076;7.950;2023-04-25T01:07:17;12.55;;;5.40;;
55031;SDS011;40928;51.076;7.950;2023-04-25T01:09:43;11.18;;;5.18;;
55031;SDS011;40928;51.076;7.950;2023-04-25T01:12:09;16.83;;;6.13;;
55031;SDS011;40928;51.076;7.950;2023-04-25T01:14:35;14.20;;;5.40;;
55031;SDS011;40928;51.076;7.950;2023-04-25T01:17:00;15.93;;;5.60;;
55031;SDS011;40928;51.076;7.950;2023-04-25T01:19:26;16.33;;;5.43;;
55031;SDS011;40928;51.076;7.950;2023-04-25T01:21:52;10.85;;;5.00;;
55031;SDS011;40928;51.076;7.950;2023-04-25T01:24:18;14.35;;;5.45;;
55031;SDS011;40928;51.076;7.950;2023-04-25T01:26:43;18.45;;;5.32;;
55031;SDS011;40928;51.076;7.950;2023-04-25T01:29:16;12.65;;;5.32;;
55031;SDS011;40928;51.076;7.950;2023-04-25T01:31:43;17.35;;;5.20;;
55031;SDS011;40928;51.076;7.950;2023-04-25T01:34:09;12.02;;;4.25;;
55031;SDS011;40928;51.076;7.950;2023-04-25T01:36:35;12.77;;;4.03;;
55031;SDS011;40928;51.076;7.950;2023-04-25T01:39:01;12.52;;;4.43;;
55031;SDS011;40928;51.076;7.950;2023-04-25T01:41:27;12.57;;;4.75;;
55031;SDS011;40928;51.076;7.950;2023-04-25T01:43:53;16.65;;;4.90;;
55031;SDS011;40928;51.076;7.950;2023-04-25T01:46:19;6.85;;;3.67;;
55031;SDS011;40928;51.076;7.950;2023-04-25T01:48:44;21.92;;;4.80;;
55031;SDS011;40928;51.076;7.950;2023-04-25T01:51:10;11.77;;;4.65;;
55031;SDS011;40928;51.076;7.950;2023-04-25T01:53:37;10.30;;;4.20;;
55031;SDS011;40928;51.076;7.950;2023-04-25T01:56:03;10.63;;;3.83;;
55031;SDS011;40928;51.076;7.950;2023-04-25T01:58:33;14.38;;;4.35;;
55031;SDS011;40928;51.076;7.950;2023-04-25T02:01:04;18.92;;;4.25;;
55031;SDS011;40928;51.076;7.950;2023-04-25T02:03:38;13.52;;;5.85;;
55031;SDS011;40928;51.076;7.950;2023-04-25T02:06:07;21.25;;;5.20;;
55031;SDS011;40928;51.076;7.950;2023-04-25T02:08:36;14.63;;;4.80;;
55031;SDS011;40928;51.076;7.950;2023-04-25T02:11:02;16.63;;;5.32;;
55031;SDS011;40928;51.076;7.950;2023-04-25T02:13:35;13.38;;;5.70;;
55031;SDS011;40928;51.076;7.950;2023-04-25T02:16:36;17.55;;;4.70;;
55031;SDS011;40928;51.076;7.950;2023-04-25T02:19:02;14.77;;;5.30;;
55031;SDS011;40928;51.076;7.950;2023-04-25T02:21:29;15.65;;;4.32;;
55031;SDS011;40928;51.076;7.950;2023-04-25T02:23:55;16.20;;;5.10;;
55031;SDS011;40928;51.076;7.950;2023-04-25T02:31:54;15.60;;;4.75;;
55031;SDS011;40928;51.076;7.950;2023-04-25T02:34:19;12.77;;;5.43;;
55031;SDS011;40928;51.076;7.950;2023-04-25T02:36:45;15.40;;;5.45;;
55031;SDS011;40928;51.076;7.950;2023-04-25T02:39:10;11.23;;;5.00;;
55031;SDS011;40928;51.076;7.950;2023-04-25T02:41:36;11.45;;;3.90;;
55031;SDS011;40928;51.076;7.950;2023-04-25T02:44:02;13.52;;;5.10;;
55031;SDS011;40928;51.076;7.950;2023-04-25T02:46:27;15.55;;;5.53;;
55031;SDS011;40928;51.076;7.950;2023-04-25T02:48:53;12.05;;;5.28;;
55031;SDS011;40928;51.076;7.950;2023-04-25T02:51:18;15.73;;;4.85;;
55031;SDS011;40928;51.076;7.950;2023-04-25T02:53:44;21.35;;;5.60;;
55031;SDS011;40928;51.076;7.950;2023-04-25T02:56:09;10.02;;;4.55;;
55031;SDS011;40928;51.076;7.950;2023-04-25T02:58:35;9.25;;;4.55;;
55031;SDS011;40928;51.076;7.950;2023-04-25T03:01:01;13.07;;;4.40;;
55031;SDS011;40928;51.076;7.950;2023-04-25T03:03:26;18.15;;;6.15;;
55031;SDS011;40928;51.076;7.950;2023-04-25T03:05:52;23.25;;;6.15;;
55031;SDS011;40928;51.076;7.950;2023-04-25T03:08:22;16.45;;;5.68;;
55031;SDS011;40928;51.076;7.950;2023-04-25T03:10:48;13.32;;;5.55;;
55031;SDS011;40928;51.076;7.950;2023-04-25T03:13:16;19.55;;;6.70;;
55031;SDS011;40928;51.076;7.950;2023-04-25T03:15:42;12.95;;;5.65;;
55031;SDS011;40928;51.076;7.950;2023-04-25T03:18:08;11.32;;;5.13;;
55031;SDS011;40928;51.076;7.950;2023-04-25T03:20:34;11.43;;;4.95;;
55031;SDS011;40928;51.076;7.950;2023-04-25T03:22:59;16.60;;;5.57;;
55031;SDS011;40928;51.076;7.950;2023-04-25T03:25:26;13.75;;;5.78;;
55031;SDS011;40928;51.076;7.950;2023-04-25T03:27:52;17.77;;;6.00;;
55031;SDS011;40928;51.076;7.950;2023-04-25T03:30:18;14.07;;;5.15;;
55031;SDS011;40928;51.076;7.950;2023-04-25T03:32:44;13.52;;;6.57;;
55031;SDS011;40928;51.076;7.950;2023-04-25T03:35:12;15.93;;;5.78;;
55031;SDS011;40928;51.076;7.950;2023-04-25T03:37:38;14.70;;;5.63;;
55031;SDS011;40928;51.076;7.950;2023-04-25T03:40:06;13.40;;;5.90;;
55031;SDS011;40928;51.076;7.950;2023-04-25T03:42:52;14.65;;;5.72;;
55031;SDS011;40928;51.076;7.950;2023-04-25T03:45:18;17.50;;;5.78;;
55031;SDS011;40928;51.076;7.950;2023-04-25T03:47:44;14.50;;;6.63;;
55031;SDS011;40928;51.076;7.950;2023-04-25T03:50:09;14.63;;;5.75;;
55031;SDS011;40928;51.076;7.950;2023-04-25T03:52:35;15.10;;;5.88;;
55031;SDS011;40928;51.076;7.950;2023-04-25T03:55:02;18.10;;;6.25;;
55031;SDS011;40928;51.076;7.950;2023-04-25T03:57:27;20.00;;;7.68;;
55031;SDS011;40928;51.076;7.950;2023-04-25T03:59:53;19.27;;;7.00;;
55031;SDS011;40928;51.076;7.950;2023-04-25T04:02:20;25.58;;;6.68;;
55031;SDS011;40928;51.076;7.950;2023-04-25T04:04:45;18.10;;;6.40;;
55031;SDS011;40928;51.076;7.950;2023-04-25T04:07:11;18.33;;;7.30;;
55031;SDS011;40928;51.076;7.950;2023-04-25T04:09:40;19.13;;;6.68;;
55031;SDS011;40928;51.076;7.950;2023-04-25T04:12:11;13.77;;;6.45;;
55031;SDS011;40928;51.076;7.950;2023-04-25T04:14:39;15.80;;;7.28;;
55031;SDS011;40928;51.076;7.950;2023-04-25T04:17:05;21.08;;;6.75;;
55031;SDS011;40928;51.076;7.950;2023-04-25T04:19:31;19.30;;;6.45;;
55031;SDS011;40928;51.076;7.950;2023-04-25T04:22:23;13.88;;;6.90;;
55031;SDS011;40928;51.076;7.950;2023-04-25T04:24:50;16.25;;;6.43;;
55031;SDS011;40928;51.076;7.950;2023-04-25T04:27:22;12.93;;;5.97;;
55031;SDS011;40928;51.076;7.950;2023-04-25T04:32:28;15.02;;;6.45;;
55031;SDS011;40928;51.076;7.950;2023-04-25T04:34:56;17.33;;;6.70;;
55031;SDS011;40928;51.076;7.950;2023-04-25T04:37:23;15.48;;;6.60;;
55031;SDS011;40928;51.076;7.950;2023-04-25T04:39:50;12.32;;;6.28;;
55031;SDS011;40928;51.076;7.950;2023-04-25T04:42:33;14.27;;;6.95;;
55031;SDS011;40928;51.076;7.950;2023-04-25T04:45:21;17.98;;;5.50;;
55031;SDS011;40928;51.076;7.950;2023-04-25T04:48:11;16.15;;;6.30;;
55031;SDS011;40928;51.076;7.950;2023-04-25T04:50:54;13.38;;;6.28;;
55031;SDS011;40928;51.076;7.950;2023-04-25T04:53:58;11.40;;;5.43;;
55031;SDS011;40928;51.076;7.950;2023-04-25T04:56:45;12.40;;;5.63;;
55031;SDS011;40928;51.076;7.950;2023-04-25T04:59:43;10.07;;;5.00;;
55031;SDS011;40928;51.076;7.950;2023-04-25T05:02:35;19.30;;;5.38;;
55031;SDS011;40928;51.076;7.950;2023-04-25T05:08:04;8.75;;;4.13;;
55031;SDS011;40928;51.076;7.950;2023-04-25T05:10:59;7.13;;;4.30;;
55031;SDS011;40928;51.076;7.950;2023-04-25T05:13:51;8.02;;;4.35;;
55031;SDS011;40928;51.076;7.950;2023-04-25T05:16:37;7.75;;;3.97;;
55031;SDS011;40928;51.076;7.950;2023-04-25T05:19:35;10.30;;;4.40;;
55031;SDS011;40928;51.076;7.950;2023-04-25T05:22:21;6.47;;;3.55;;
55031;SDS011;40928;51.076;7.950;2023-04-25T05:25:09;9.63;;;3.55;;
55031;SDS011;40928;51.076;7.950;2023-04-25T05:28:04;7.53;;;3.22;;
55031;SDS011;40928;51.076;7.950;2023-04-25T05:30:47;5.85;;;2.47;;
55031;SDS011;40928;51.076;7.950;2023-04-25T05:33:16;7.82;;;3.70;;
55031;SDS011;40928;51.076;7.950;2023-04-25T05:35:43;8.85;;;3.60;;
55031;SDS011;40928;51.076;7.950;2023-04-25T05:38:10;14.30;;;3.55;;
55031;SDS011;40928;51.076;7.950;2023-04-25T05:40:54;10.50;;;3.35;;
55031;SDS011;40928;51.076;7.950;2023-04-25T05:43:37;13.27;;;3.25;;
55031;SDS011;40928;51.076;7.950;2023-04-25T05:46:20;10.32;;;3.28;;
55031;SDS011;40928;51.076;7.950;2023-04-25T05:49:11;9.50;;;3.20;;
55031;SDS011;40928;51.076;7.950;2023-04-25T05:51:53;8.55;;;3.50;;
55031;SDS011;40928;51.076;7.950;2023-04-25T05:54:29;14.13;;;3.95;;
55031;SDS011;40928;51.076;7.950;2023-04-25T05:56:56;9.85;;;3.42;;
55031;SDS011;40928;51.076;7.950;2023-04-25T05:59:22;6.30;;;2.72;;
55031;SDS011;40928;51.076;7.950;2023-04-25T06:01:47;9.80;;;3.00;;
55031;SDS011;40928;51.076;7.950;2023-04-25T06:04:13;9.48;;;3.60;;
55031;SDS011;40928;51.076;7.950;2023-04-25T06:06:40;8.93;;;3.78;;
55031;SDS011;40928;51.076;7.950;2023-04-25T06:09:05;7.53;;;3.15;;
55031;SDS011;40928;51.076;7.950;2023-04-25T06:11:31;9.07;;;3.50;;
55031;SDS011;40928;51.076;7.950;2023-04-25T06:13:57;8.35;;;2.90;;
55031;SDS011;40928;51.076;7.950;2023-04-25T06:16:23;5.97;;;2.47;;
55031;SDS011;40928;51.076;7.950;2023-04-25T06:18:51;16.35;;;3.05;;
55031;SDS011;40928;51.076;7.950;2023-04-25T06:21:16;5.78;;;2.17;;
55031;SDS011;40928;51.076;7.950;2023-04-25T06:23:42;12.02;;;2.97;;
55031;SDS011;40928;51.076;7.950;2023-04-25T06:26:10;9.45;;;2.75;;
55031;SDS011;40928;51.076;7.950;2023-04-25T06:28:38;5.53;;;2.10;;
55031;SDS011;40928;51.076;7.950;2023-04-25T06:31:04;5.70;;;1.80;;
55031;SDS011;40928;51.076;7.950;2023-04-25T06:33:29;7.85;;;1.90;;
55031;SDS011;40928;51.076;7.950;2023-04-25T06:35:55;7.20;;;2.50;;
55031;SDS011;40928;51.076;7.950;2023-04-25T06:38:24;4.93;;;1.60;;
55031;SDS011;40928;51.076;7.950;2023-04-25T06:40:51;4.43;;;1.52;;
55031;SDS011;40928;51.076;7.950;2023-04-25T06:43:18;6.38;;;2.05;;
55031;SDS011;40928;51.076;7.950;2023-04-25T06:46:04;5.78;;;1.83;;
55031;SDS011;40928;51.076;7.950;2023-04-25T06:48:32;7.43;;;1.95;;
55031;SDS011;40928;51.076;7.950;2023-04-25T06:50:58;7.75;;;2.00;;
55031;SDS011;40928;51.076;7.950;2023-04-25T06:53:24;15.20;;;2.63;;
55031;SDS011;40928;51.076;7.950;2023-04-25T06:55:56;10.38;;;1.90;;
55031;SDS011;40928;51.076;7.950;2023-04-25T06:58:22;13.68;;;2.42;;
55031;SDS011;40928;51.076;7.950;2023-04-25T07:00:48;7.50;;;1.73;;
55031;SDS011;40928;51.076;7.950;2023-04-25T07:03:14;11.43;;;2.28;;
55031;SDS011;40928;51.076;7.950;2023-04-25T07:05:40;11.23;;;2.45;;
55031;SDS011;40928;51.076;7.950;2023-04-25T07:08:06;10.50;;;2.20;;
55031;SDS011;40928;51.076;7.950;2023-04-25T07:10:31;9.90;;;2.10;;
55031;SDS011;40928;51.076;7.950;2023-04-25T07:12:57;10.40;;;2.17;;
55031;SDS011;40928;51.076;7.950;2023-04-25T07:15:23;13.45;;;2.35;;
55031;SDS011;40928;51.076;7.950;2023-04-25T07:17:49;14.57;;;2.40;;
55031;SDS011;40928;51.076;7.950;2023-04-25T07:20:14;11.95;;;2.17;;
55031;SDS011;40928;51.076;7.950;2023-04-25T07:22:41;8.32;;;1.92;;
55031;SDS011;40928;51.076;7.950;2023-04-25T07:25:08;14.00;;;2.45;;
55031;SDS011;40928;51.076;7.950;2023-04-25T07:27:34;11.38;;;2.75;;
55031;SDS011;40928;51.076;7.950;2023-04-25T07:30:19;11.45;;;2.17;;
55031;SDS011;40928;51.076;7.950;2023-04-25T07:32:45;11.48;;;1.85;;
55031;SDS011;40928;51.076;7.950;2023-04-25T07:35:10;10.48;;;2.85;;
55031;SDS011;40928;51.076;7.950;2023-04-25T07:37:36;8.85;;;2.20;;
55031;SDS011;40928;51.076;7.950;2023-04-25T07:40:14;14.90;;;2.78;;
55031;SDS011;40928;51.076;7.950;2023-04-25T07:42:53;6.55;;;2.10;;
55031;SDS011;40928;51.076;7.950;2023-04-25T07:45:30;8.68;;;2.17;;
55031;SDS011;40928;51.076;7.950;2023-04-25T07:47:56;11.45;;;2.72;;
55031;SDS011;40928;51.076;7.950;2023-04-25T07:50:22;9.15;;;2.35;;
55031;SDS011;40928;51.076;7.950;2023-04-25T07:52:48;13.02;;;2.13;;
55031;SDS011;40928;51.076;7.950;2023-04-25T07:55:23;11.35;;;2.38;;
55031;SDS011;40928;51.076;7.950;2023-04-25T07:58:00;6.07;;;1.95;;
55031;SDS011;40928;51.076;7.950;2023-04-25T08:00:28;12.32;;;2.75;;
55031;SDS011;40928;51.076;7.950;2023-04-25T08:03:10;10.60;;;2.38;;
55031;SDS011;40928;51.076;7.950;2023-04-25T08:05:35;5.72;;;2.45;;
55031;SDS011;40928;51.076;7.950;2023-04-25T08:08:04;10.70;;;2.40;;
55031;SDS011;40928;51.076;7.950;2023-04-25T08:10:32;14.07;;;2.63;;
55031;SDS011;40928;51.076;7.950;2023-04-25T08:12:58;6.28;;;1.88;;
55031;SDS011;40928;51.076;7.950;2023-04-25T08:15:25;15.35;;;2.08;;
55031;SDS011;40928;51.076;7.950;2023-04-25T08:17:51;6.30;;;1.83;;
55031;SDS011;40928;51.076;7.950;2023-04-25T08:20:17;6.50;;;1.15;;
55031;SDS011;40928;51.076;7.950;2023-04-25T08:22:43;8.68;;;2.42;;
55031;SDS011;40928;51.076;7.950;2023-04-25T08:25:34;9.70;;;2.15;;
55031;SDS011;40928;51.076;7.950;2023-04-25T08:28:01;8.30;;;1.92;;
55031;SDS011;40928;51.076;7.950;2023-04-25T08:30:28;14.77;;;2.40;;
55031;SDS011;40928;51.076;7.950;2023-04-25T08:32:55;16.23;;;2.47;;
55031;SDS011;40928;51.076;7.950;2023-04-25T08:35:40;8.55;;;2.00;;
55031;SDS011;40928;51.076;7.950;2023-04-25T08:38:06;11.18;;;2.30;;
55031;SDS011;40928;51.076;7.950;2023-04-25T08:40:32;10.70;;;1.70;;
55031;SDS011;40928;51.076;7.950;2023-04-25T08:43:06;14.68;;;2.35;;
55031;SDS011;40928;51.076;7.950;2023-04-25T08:45:40;11.65;;;2.10;;
55031;SDS011;40928;51.076;7.950;2023-04-25T08:48:14;7.40;;;1.95;;
55031;SDS011;40928;51.076;7.950;2023-04-25T08:50:50;8.65;;;2.60;;
55031;SDS011;40928;51.076;7.950;2023-04-25T08:53:23;9.88;;;2.30;;
55031;SDS011;40928;51.076;7.950;2023-04-25T08:55:52;11.05;;;2.30;;
55031;SDS011;40928;51.076;7.950;2023-04-25T08:58:19;4.85;;;1.65;;
55031;SDS011;40928;51.076;7.950;2023-04-25T09:00:46;5.40;;;1.60;;
55031;SDS011;40928;51.076;7.950;2023-04-25T09:03:12;6.63;;;2.22;;
55031;SDS011;40928;51.076;7.950;2023-04-25T09:05:39;8.95;;;2.28;;
55031;SDS011;40928;51.076;7.950;2023-04-25T09:08:06;7.13;;;2.15;;
55031;SDS011;40928;51.076;7.950;2023-04-25T09:10:32;11.77;;;2.03;;
55031;SDS011;40928;51.076;7.950;2023-04-25T09:15:29;8.05;;;2.10;;
55031;SDS011;40928;51.076;7.950;2023-04-25T09:18:07;8.02;;;2.53;;
55031;SDS011;40928;51.076;7.950;2023-04-25T09:20:42;11.63;;;3.35;;
55031;SDS011;40928;51.076;7.950;2023-04-25T09:23:10;6.63;;;2.45;;
55031;SDS011;40928;51.076;7.950;2023-04-25T09:25:37;11.23;;;2.35;;
55031;SDS011;40928;51.076;7.950;2023-04-25T09:28:06;5.65;;;2.38;;
55031;SDS011;40928;51.076;7.950;2023-04-25T09:30:33;9.70;;;3.08;;
55031;SDS011;40928;51.076;7.950;2023-04-25T09:33:20;8.77;;;2.50;;
55031;SDS011;40928;51.076;7.950;2023-04-25T09:35:53;9.80;;;3.08;;
55031;SDS011;40928;51.076;7.950;2023-04-25T09:38:41;12.25;;;1.63;;
55031;SDS011;40928;51.076;7.950;2023-04-25T09:41:23;6.55;;;1.80;;
55031;SDS011;40928;51.076;7.950;2023-04-25T09:43:49;15.50;;;2.30;;
55031;SDS011;40928;51.076;7.950;2023-04-25T09:46:15;6.90;;;2.15;;
55031;SDS011;40928;51.076;7.950;2023-04-25T09:48:49;9.13;;;1.70;;
55031;SDS011;40928;51.076;7.950;2023-04-25T09:51:22;15.45;;;2.08;;
55031;SDS011;40928;51.076;7.950;2023-04-25T09:53:51;9.43;;;1.95;;
55031;SDS011;40928;51.076;7.950;2023-04-25T09:56:36;12.50;;;2.30;;
55031;SDS011;40928;51.076;7.950;2023-04-25T09:59:05;6.78;;;2.05;;
55031;SDS011;40928;51.076;7.950;2023-04-25T10:01:34;6.72;;;1.73;;
55031;SDS011;40928;51.076;7.950;2023-04-25T10:04:10;9.73;;;2.28;;
55031;SDS011;40928;51.076;7.950;2023-04-25T10:06:44;11.07;;;1.98;;
55031;SDS011;40928;51.076;7.950;2023-04-25T10:09:14;8.43;;;1.88;;
55031;SDS011;40928;51.076;7.950;2023-04-25T10:11:42;8.15;;;1.65;;
55031;SDS011;40928;51.076;7.950;2023-04-25T10:14:09;6.88;;;1.95;;
55031;SDS011;40928;51.076;7.950;2023-04-25T10:16:37;12.38;;;2.08;;
55031;SDS011;40928;51.076;7.950;2023-04-25T10:19:03;6.38;;;1.48;;
55031;SDS011;40928;51.076;7.950;2023-04-25T10:21:30;5.43;;;1.10;;
55031;SDS011;40928;51.076;7.950;2023-04-25T10:23:58;5.63;;;1.30;;
55031;SDS011;40928;51.076;7.950;2023-04-25T10:26:25;7.63;;;1.15;;
55031;SDS011;40928;51.076;7.950;2023-04-25T10:29:01;8.35;;;1.70;;
55031;SDS011;40928;51.076;7.950;2023-04-25T10:31:29;5.35;;;1.20;;
55031;SDS011;40928;51.076;7.950;2023-04-25T10:33:56;2.67;;;0.93;;
55031;SDS011;40928;51.076;7.950;2023-04-25T10:36:22;3.00;;;0.80;;
55031;SDS011;40928;51.076;7.950;2023-04-25T10:38:49;6.93;;;1.60;;
55031;SDS011;40928;51.076;7.950;2023-04-25T10:41:17;7.47;;;1.10;;
55031;SDS011;40928;51.076;7.950;2023-04-25T10:43:44;8.23;;;1.20;;
55031;SDS011;40928;51.076;7.950;2023-04-25T10:48:43;12.55;;;1.20;;
55031;SDS011;40928;51.076;7.950;2023-04-25T10:51:18;7.45;;;0.98;;
55031;SDS011;40928;51.076;7.950;2023-04-25T10:54:01;7.28;;;0.90;;
55031;SDS011;40928;51.076;7.950;2023-04-25T10:56:41;6.25;;;1.00;;
55031;SDS011;40928;51.076;7.950;2023-04-25T10:59:18;6.15;;;1.00;;
55031;SDS011;40928;51.076;7.950;2023-04-25T11:01:52;9.05;;;1.48;;
55031;SDS011;40928;51.076;7.950;2023-04-25T11:04:32;9.15;;;1.17;;
55031;SDS011;40928;51.076;7.950;2023-04-25T11:09:50;9.05;;;1.40;;
55031;SDS011;40928;51.076;7.950;2023-04-25T11:12:17;4.82;;;0.90;;
55031;SDS011;40928;51.076;7.950;2023-04-25T11:14:42;3.70;;;1.08;;
55031;SDS011;40928;51.076;7.950;2023-04-25T11:17:08;8.05;;;1.20;;
55031;SDS011;40928;51.076;7.950;2023-04-25T11:19:35;3.35;;;1.15;;
55031;SDS011;40928;51.076;7.950;2023-04-25T11:22:01;8.52;;;1.55;;
55031;SDS011;40928;51.076;7.950;2023-04-25T11:24:28;6.13;;;0.93;;
55031;SDS011;40928;51.076;7.950;2023-04-25T11:26:57;8.30;;;0.95;;
55031;SDS011;40928;51.076;7.950;2023-04-25T11:29:26;3.33;;;0.70;;
55031;SDS011;40928;51.076;7.950;2023-04-25T11:31:54;3.67;;;0.68;;
55031;SDS011;40928;51.076;7.950;2023-04-25T11:34:23;3.67;;;0.95;;
55031;SDS011;40928;51.076;7.950;2023-04-25T11:36:49;5.45;;;0.90;;
55031;SDS011;40928;51.076;7.950;2023-04-25T11:39:15;7.15;;;1.15;;
55031;SDS011;40928;51.076;7.950;2023-04-25T11:41:41;6.93;;;1.05;;
55031;SDS011;40928;51.076;7.950;2023-04-25T11:44:07;4.30;;;0.75;;
55031;SDS011;40928;51.076;7.950;2023-04-25T11:46:35;6.35;;;1.30;;
55031;SDS011;40928;51.076;7.950;2023-04-25T11:49:01;5.97;;;1.13;;
55031;SDS011;40928;51.076;7.950;2023-04-25T11:51:26;6.75;;;0.90;;
55031;SDS011;40928;51.076;7.950;2023-04-25T11:53:52;6.13;;;0.88;;
55031;SDS011;40928;51.076;7.950;2023-04-25T11:56:18;3.63;;;0.70;;
55031;SDS011;40928;51.076;7.950;2023-04-25T11:59:03;7.03;;;0.77;;
55031;SDS011;40928;51.076;7.950;2023-04-25T12:03:57;3.67;;;1.13;;
55031;SDS011;40928;51.076;7.950;2023-04-25T12:06:27;4.80;;;0.77;;
55031;SDS011;40928;51.076;7.950;2023-04-25T12:09:02;6.00;;;0.95;;
55031;SDS011;40928;51.076;7.950;2023-04-25T12:11:32;10.52;;;1.35;;
55031;SDS011;40928;51.076;7.950;2023-04-25T12:14:04;5.85;;;0.80;;
55031;SDS011;40928;51.076;7.950;2023-04-25T12:16:39;5.85;;;1.10;;
55031;SDS011;40928;51.076;7.950;2023-04-25T12:19:06;5.15;;;0.60;;
55031;SDS011;40928;51.076;7.950;2023-04-25T12:21:32;4.47;;;0.55;;
55031;SDS011;40928;51.076;7.950;2023-04-25T12:24:17;3.20;;;0.70;;
55031;SDS011;40928;51.076;7.950;2023-04-25T12:26:57;3.85;;;0.60;;
55031;SDS011;40928;51.076;7.950;2023-04-25T12:29:24;4.38;;;0.65;;
55031;SDS011;40928;51.076;7.950;2023-04-25T12:31:51;3.88;;;0.68;;
55031;SDS011;40928;51.076;7.950;2023-04-25T12:34:19;2.97;;;0.80;;
55031;SDS011;40928;51.076;7.950;2023-04-25T12:36:45;5.13;;;1.10;;
55031;SDS011;40928;51.076;7.950;2023-04-25T12:39:17;2.08;;;0.57;;
55031;SDS011;40928;51.076;7.950;2023-04-25T12:41:45;4.68;;;0.73;;
55031;SDS011;40928;51.076;7.950;2023-04-25T12:44:11;5.78;;;0.88;;
55031;SDS011;40928;51.076;7.950;2023-04-25T12:46:37;4.07;;;0.70;;
55031;SDS011;40928;51.076;7.950;2023-04-25T12:49:03;8.85;;;1.17;;
55031;SDS011;40928;51.076;7.950;2023-04-25T12:51:30;2.38;;;0.88;;
55031;SDS011;40928;51.076;7.950;2023-04-25T12:53:57;2.28;;;0.70;;
55031;SDS011;40928;51.076;7.950;2023-04-25T12:56:27;5.57;;;1.42;;
55031;SDS011;40928;51.076;7.950;2023-04-25T12:58:53;3.85;;;0.82;;
55031;SDS011;40928;51.076;7.950;2023-04-25T13:01:19;7.22;;;1.10;;
55031;SDS011;40928;51.076;7.950;2023-04-25T13:03:45;4.47;;;0.77;;
55031;SDS011;40928;51.076;7.950;2023-04-25T13:06:11;4.32;;;0.55;;
55031;SDS011;40928;51.076;7.950;2023-04-25T13:08:38;2.75;;;1.05;;
55031;SDS011;40928;51.076;7.950;2023-04-25T13:11:04;3.83;;;0.75;;
55031;SDS011;40928;51.076;7.950;2023-04-25T13:13:30;4.43;;;0.70;;
55031;SDS011;40928;51.076;7.950;2023-04-25T13:15:56;2.25;;;0.80;;
55031;SDS011;40928;51.076;7.950;2023-04-25T13:18:22;4.13;;;0.90;;
55031;SDS011;40928;51.076;7.950;2023-04-25T13:20:54;5.15;;;1.25;;
55031;SDS011;40928;51.076;7.950;2023-04-25T13:23:20;3.92;;;1.10;;
55031;SDS011;40928;51.076;7.950;2023-04-25T13:25:46;4.97;;;0.98;;
55031;SDS011;40928;51.076;7.950;2023-04-25T13:28:12;10.73;;;1.33;;
55031;SDS011;40928;51.076;7.950;2023-04-25T13:30:38;10.07;;;1.27;;
55031;SDS011;40928;51.076;7.950;2023-04-25T13:33:03;5.78;;;0.90;;
55031;SDS011;40928;51.076;7.950;2023-04-25T13:35:31;5.07;;;0.95;;
55031;SDS011;40928;51.076;7.950;2023-04-25T13:37:58;2.63;;;0.63;;
55031;SDS011;40928;51.076;7.950;2023-04-25T13:40:24;4.65;;;0.80;;
55031;SDS011;40928;51.076;7.950;2023-04-25T13:42:50;4.38;;;0.60;;
55031;SDS011;40928;51.076;7.950;2023-04-25T13:45:16;2.85;;;0.93;;
55031;SDS011;40928;51.076;7.950;2023-04-25T13:47:42;4.97;;;0.98;;
55031;SDS011;40928;51.076;7.950;2023-04-25T13:50:07;5.93;;;0.85;;
55031;SDS011;40928;51.076;7.950;2023-04-25T13:52:33;5.93;;;1.02;;
55031;SDS011;40928;51.076;7.950;2023-04-25T13:54:59;4.75;;;0.77;;
55031;SDS011;40928;51.076;7.950;2023-04-25T13:57:25;3.55;;;0.75;;
55031;SDS011;40928;51.076;7.950;2023-04-25T13:59:50;4.20;;;0.68;;
55031;SDS011;40928;51.076;7.950;2023-04-25T14:02:16;7.18;;;1.25;;
55031;SDS011;40928;51.076;7.950;2023-04-25T14:04:42;4.97;;;0.60;;
55031;SDS011;40928;51.076;7.950;2023-04-25T14:07:07;3.85;;;0.50;;
55031;SDS011;40928;51.076;7.950;2023-04-25T14:09:33;2.55;;;0.47;;
55031;SDS011;40928;51.076;7.950;2023-04-25T14:11:59;1.42;;;0.73;;
55031;SDS011;40928;51.076;7.950;2023-04-25T14:14:25;3.65;;;0.80;;
55031;SDS011;40928;51.076;7.950;2023-04-25T14:16:51;4.10;;;0.80;;
55031;SDS011;40928;51.076;7.950;2023-04-25T14:19:19;4.35;;;0.63;;
55031;SDS011;40928;51.076;7.950;2023-04-25T14:21:46;7.30;;;1.17;;
55031;SDS011;40928;51.076;7.950;2023-04-25T14:24:12;7.15;;;1.10;;
55031;SDS011;40928;51.076;7.950;2023-04-25T14:26:38;2.10;;;0.60;;
55031;SDS011;40928;51.076;7.950;2023-04-25T14:29:04;3.40;;;0.70;;
55031;SDS011;40928;51.076;7.950;2023-04-25T14:31:34;1.98;;;0.60;;
55031;SDS011;40928;51.076;7.950;2023-04-25T14:34:00;3.20;;;1.00;;
55031;SDS011;40928;51.076;7.950;2023-04-25T14:36:27;8.75;;;0.90;;
55031;SDS011;40928;51.076;7.950;2023-04-25T14:38:53;2.58;;;0.90;;
55031;SDS011;40928;51.076;7.950;2023-04-25T14:41:19;3.35;;;1.00;;
55031;SDS011;40928;51.076;7.950;2023-04-25T14:43:44;7.03;;;1.00;;
55031;SDS011;40928;51.076;7.950;2023-04-25T14:46:10;4.43;;;0.70;;
55031;SDS011;40928;51.076;7.950;2023-04-25T14:48:36;4.57;;;0.90;;
55031;SDS011;40928;51.076;7.950;2023-04-25T14:51:02;7.28;;;1.25;;
55031;SDS011;40928;51.076;7.950;2023-04-25T14:53:27;3.53;;;0.82;;
55031;SDS011;40928;51.076;7.950;2023-04-25T14:55:53;6.22;;;0.90;;
55031;SDS011;40928;51.076;7.950;2023-04-25T14:58:19;3.85;;;0.98;;
55031;SDS011;40928;51.076;7.950;2023-04-25T15:00:45;2.40;;;0.70;;
55031;SDS011;40928;51.076;7.950;2023-04-25T15:03:11;2.92;;;0.77;;
55031;SDS011;40928;51.076;7.950;2023-04-25T15:05:38;3.20;;;1.00;;
55031;SDS011;40928;51.076;7.950;2023-04-25T15:08:05;7.97;;;0.82;;
55031;SDS011;40928;51.076;7.950;2023-04-25T15:10:30;6.93;;;0.82;;
55031;SDS011;40928;51.076;7.950;2023-04-25T15:12:56;4.05;;;0.63;;
55031;SDS011;40928;51.076;7.950;2023-04-25T15:15:22;2.63;;;0.40;;